Terminal Aerodrome Forecast
Issued by NWS

Home | Current Version | Previous Version | Text Only | Print | Product List | Glossary On
Versions: 1 2 3 4 5 6 7 8 9 10 11 12 13 14 15 16 17 18 19 20 21 22
000
FTUS45 KLKN 301120
TAFEKO
TAF
KEKO 301120Z 3012/0112 VRB04KT P6SM BKN120
     FM302000 25010KT P6SM VCTS SCT100CB
     FM010300 VRB06KT P6SM SCT120=

USA.gov is the U.S. government's official web portal to all federal, state and local government web resources and services.